sensor_id;sensor_type;location;lat;lon;timestamp;pressure;altitude;pressure_sealevel;temperature;humidity
5484;BME280;2764;48.794;8.326;2023-02-13T00:00:29;79604.72;;;-140.34;100.00
5484;BME280;2764;48.794;8.326;2023-02-13T00:01:32;79608.75;;;-140.34;100.00
5484;BME280;2764;48.794;8.326;2023-02-13T00:02:34;79600.69;;;-140.34;100.00
5484;BME280;2764;48.794;8.326;2023-02-13T00:03:36;79600.69;;;-140.34;100.00
5484;BME280;2764;48.794;8.326;2023-02-13T00:04:40;79598.69;;;-140.34;100.00
5484;BME280;2764;48.794;8.326;2023-02-13T00:05:45;79594.66;;;-140.34;100.00
5484;BME280;2764;48.794;8.326;2023-02-13T00:06:47;79592.66;;;-140.34;100.00
5484;BME280;2764;48.794;8.326;2023-02-13T00:07:50;79574.53;;;-140.34;100.00
5484;BME280;2764;48.794;8.326;2023-02-13T00:08:52;79570.50;;;-140.34;100.00
5484;BME280;2764;48.794;8.326;2023-02-13T00:09:54;79560.44;;;-140.34;100.00
5484;BME280;2764;48.794;8.326;2023-02-13T00:10:56;79560.44;;;-140.34;100.00
5484;BME280;2764;48.794;8.326;2023-02-13T00:11:59;79566.50;;;-140.34;100.00
5484;BME280;2764;48.794;8.326;2023-02-13T00:13:01;79572.53;;;-140.34;100.00
5484;BME280;2764;48.794;8.326;2023-02-13T00:14:04;79572.53;;;-140.34;100.00
5484;BME280;2764;48.794;8.326;2023-02-13T00:15:07;79578.56;;;-140.34;100.00
5484;BME280;2764;48.794;8.326;2023-02-13T00:16:09;79576.56;;;-140.34;100.00
5484;BME280;2764;48.794;8.326;2023-02-13T00:17:12;79584.59;;;-140.34;100.00
5484;BME280;2764;48.794;8.326;2023-02-13T00:18:14;79588.63;;;-140.34;100.00
5484;BME280;2764;48.794;8.326;2023-02-13T00:19:16;79582.59;;;-140.34;100.00
5484;BME280;2764;48.794;8.326;2023-02-13T00:20:18;79576.56;;;-140.34;100.00
5484;BME280;2764;48.794;8.326;2023-02-13T00:21:20;79582.59;;;-140.34;100.00
5484;BME280;2764;48.794;8.326;2023-02-13T00:22:22;79584.59;;;-140.34;100.00
5484;BME280;2764;48.794;8.326;2023-02-13T00:23:29;79578.56;;;-140.34;100.00
5484;BME280;2764;48.794;8.326;2023-02-13T00:24:31;79582.59;;;-140.34;100.00
5484;BME280;2764;48.794;8.326;2023-02-13T00:25:33;79584.59;;;-140.34;100.00
5484;BME280;2764;48.794;8.326;2023-02-13T00:26:37;79582.59;;;-140.34;100.00
5484;BME280;2764;48.794;8.326;2023-02-13T00:27:41;79590.63;;;-140.34;100.00
5484;BME280;2764;48.794;8.326;2023-02-13T00:28:44;79596.66;;;-140.34;100.00
5484;BME280;2764;48.794;8.326;2023-02-13T00:29:47;79596.66;;;-140.34;100.00
5484;BME280;2764;48.794;8.326;2023-02-13T00:30:49;79600.69;;;-140.34;100.00
5484;BME280;2764;48.794;8.326;2023-02-13T00:31:51;79598.69;;;-140.34;100.00
5484;BME280;2764;48.794;8.326;2023-02-13T00:32:53;79614.78;;;-140.34;100.00
5484;BME280;2764;48.794;8.326;2023-02-13T00:33:55;79616.78;;;-140.34;100.00
5484;BME280;2764;48.794;8.326;2023-02-13T00:34:57;79608.75;;;-140.34;100.00
5484;BME280;2764;48.794;8.326;2023-02-13T00:36:14;79616.78;;;-140.34;100.00
5484;BME280;2764;48.794;8.326;2023-02-13T00:37:17;79622.81;;;-140.34;100.00
5484;BME280;2764;48.794;8.326;2023-02-13T00:38:18;79610.75;;;-140.34;100.00
5484;BME280;2764;48.794;8.326;2023-02-13T00:39:21;79614.78;;;-140.34;100.00
5484;BME280;2764;48.794;8.326;2023-02-13T00:40:25;79604.72;;;-140.34;100.00
5484;BME280;2764;48.794;8.326;2023-02-13T00:41:27;79604.72;;;-140.34;100.00
5484;BME280;2764;48.794;8.326;2023-02-13T00:42:29;79614.78;;;-140.34;100.00
5484;BME280;2764;48.794;8.326;2023-02-13T00:43:33;79616.78;;;-140.34;100.00
5484;BME280;2764;48.794;8.326;2023-02-13T00:44:36;79612.75;;;-140.34;100.00
5484;BME280;2764;48.794;8.326;2023-02-13T00:45:38;79616.78;;;-140.34;100.00
5484;BME280;2764;48.794;8.326;2023-02-13T00:46:39;79614.78;;;-140.34;100.00
5484;BME280;2764;48.794;8.326;2023-02-13T00:47:41;79616.78;;;-140.34;100.00
5484;BME280;2764;48.794;8.326;2023-02-13T00:48:43;79620.81;;;-140.34;100.00
5484;BME280;2764;48.794;8.326;2023-02-13T00:49:45;79620.81;;;-140.34;100.00
5484;BME280;2764;48.794;8.326;2023-02-13T00:50:47;79612.75;;;-140.34;100.00
5484;BME280;2764;48.794;8.326;2023-02-13T00:51:49;79608.75;;;-140.34;100.00
5484;BME280;2764;48.794;8.326;2023-02-13T00:52:51;79610.75;;;-140.34;100.00
5484;BME280;2764;48.794;8.326;2023-02-13T00:53:53;79608.75;;;-140.34;100.00
5484;BME280;2764;48.794;8.326;2023-02-13T00:54:55;79612.75;;;-140.34;100.00
5484;BME280;2764;48.794;8.326;2023-02-13T00:55:57;79616.78;;;-140.34;100.00
5484;BME280;2764;48.794;8.326;2023-02-13T00:57:00;79620.81;;;-140.34;100.00
5484;BME280;2764;48.794;8.326;2023-02-13T00:58:03;79620.81;;;-140.34;100.00
5484;BME280;2764;48.794;8.326;2023-02-13T00:59:05;79624.84;;;-140.34;100.00
5484;BME280;2764;48.794;8.326;2023-02-13T01:00:08;79632.88;;;-140.34;100.00
5484;BME280;2764;48.794;8.326;2023-02-13T01:01:10;79626.84;;;-140.34;100.00
5484;BME280;2764;48.794;8.326;2023-02-13T01:02:15;79618.81;;;-140.34;100.00
5484;BME280;2764;48.794;8.326;2023-02-13T01:03:19;79620.81;;;-140.34;100.00
5484;BME280;2764;48.794;8.326;2023-02-13T01:04:22;79628.88;;;-140.34;100.00
5484;BME280;2764;48.794;8.326;2023-02-13T01:05:24;79626.84;;;-140.34;100.00
5484;BME280;2764;48.794;8.326;2023-02-13T01:06:25;79620.81;;;-140.34;100.00
5484;BME280;2764;48.794;8.326;2023-02-13T01:07:28;79622.81;;;-140.34;100.00
5484;BME280;2764;48.794;8.326;2023-02-13T01:08:30;79624.84;;;-140.34;100.00
5484;BME280;2764;48.794;8.326;2023-02-13T01:09:32;79620.81;;;-140.34;100.00
5484;BME280;2764;48.794;8.326;2023-02-13T01:10:36;79624.84;;;-140.34;100.00
5484;BME280;2764;48.794;8.326;2023-02-13T01:11:38;79616.78;;;-140.34;100.00
5484;BME280;2764;48.794;8.326;2023-02-13T01:12:42;79628.88;;;-140.34;100.00
5484;BME280;2764;48.794;8.326;2023-02-13T01:13:45;79628.88;;;-140.34;100.00
5484;BME280;2764;48.794;8.326;2023-02-13T01:14:47;79628.88;;;-140.34;100.00
5484;BME280;2764;48.794;8.326;2023-02-13T01:15:50;79626.84;;;-140.34;100.00
5484;BME280;2764;48.794;8.326;2023-02-13T01:16:53;79624.84;;;-140.34;100.00
5484;BME280;2764;48.794;8.326;2023-02-13T01:17:55;79632.88;;;-140.34;100.00
5484;BME280;2764;48.794;8.326;2023-02-13T01:19:00;79628.88;;;-140.34;100.00
5484;BME280;2764;48.794;8.326;2023-02-13T01:20:06;79624.84;;;-140.34;100.00
5484;BME280;2764;48.794;8.326;2023-02-13T01:21:15;79622.81;;;-140.34;100.00
5484;BME280;2764;48.794;8.326;2023-02-13T01:22:17;79616.78;;;-140.34;100.00
5484;BME280;2764;48.794;8.326;2023-02-13T01:23:21;79616.78;;;-140.34;100.00
5484;BME280;2764;48.794;8.326;2023-02-13T01:24:23;79616.78;;;-140.34;100.00
5484;BME280;2764;48.794;8.326;2023-02-13T01:25:26;79616.78;;;-140.34;100.00
5484;BME280;2764;48.794;8.326;2023-02-13T01:26:29;79636.91;;;-140.34;100.00
5484;BME280;2764;48.794;8.326;2023-02-13T01:27:32;79620.81;;;-140.34;100.00
5484;BME280;2764;48.794;8.326;2023-02-13T01:28:35;79624.84;;;-140.34;100.00
5484;BME280;2764;48.794;8.326;2023-02-13T01:29:37;79622.81;;;-140.34;100.00
5484;BME280;2764;48.794;8.326;2023-02-13T01:30:41;79630.88;;;-140.34;100.00
5484;BME280;2764;48.794;8.326;2023-02-13T01:31:43;79624.84;;;-140.34;100.00
5484;BME280;2764;48.794;8.326;2023-02-13T01:32:46;79618.81;;;-140.34;100.00
5484;BME280;2764;48.794;8.326;2023-02-13T01:33:48;79616.78;;;-140.34;100.00
5484;BME280;2764;48.794;8.326;2023-02-13T01:34:51;79608.75;;;-140.34;100.00
5484;BME280;2764;48.794;8.326;2023-02-13T01:35:55;79604.72;;;-140.34;100.00
5484;BME280;2764;48.794;8.326;2023-02-13T01:36:59;79602.72;;;-140.34;100.00
5484;BME280;2764;48.794;8.326;2023-02-13T01:38:00;79604.72;;;-140.34;100.00
5484;BME280;2764;48.794;8.326;2023-02-13T01:39:02;79604.72;;;-140.34;100.00
5484;BME280;2764;48.794;8.326;2023-02-13T01:40:06;79606.72;;;-140.34;100.00
5484;BME280;2764;48.794;8.326;2023-02-13T01:41:08;79612.75;;;-140.34;100.00
5484;BME280;2764;48.794;8.326;2023-02-13T01:42:16;79610.75;;;-140.34;100.00
5484;BME280;2764;48.794;8.326;2023-02-13T01:43:21;79616.78;;;-140.34;100.00
5484;BME280;2764;48.794;8.326;2023-02-13T01:45:51;79630.88;;;-140.34;100.00
5484;BME280;2764;48.794;8.326;2023-02-13T01:46:56;79624.84;;;-140.34;100.00
5484;BME280;2764;48.794;8.326;2023-02-13T01:48:02;79624.84;;;-140.34;100.00
5484;BME280;2764;48.794;8.326;2023-02-13T01:49:16;79628.88;;;-140.34;100.00
5484;BME280;2764;48.794;8.326;2023-02-13T01:51:34;79634.91;;;-140.34;100.00
5484;BME280;2764;48.794;8.326;2023-02-13T01:52:39;79632.88;;;-140.34;100.00
5484;BME280;2764;48.794;8.326;2023-02-13T01:53:46;79638.94;;;-140.34;100.00
5484;BME280;2764;48.794;8.326;2023-02-13T01:54:49;79644.97;;;-140.34;100.00
5484;BME280;2764;48.794;8.326;2023-02-13T01:55:55;79663.06;;;-140.34;100.00
5484;BME280;2764;48.794;8.326;2023-02-13T01:57:08;79661.06;;;-140.34;100.00
5484;BME280;2764;48.794;8.326;2023-02-13T01:58:14;79665.09;;;-140.34;100.00
5484;BME280;2764;48.794;8.326;2023-02-13T01:59:23;79669.09;;;-140.34;100.00
5484;BME280;2764;48.794;8.326;2023-02-13T02:00:26;79669.09;;;-140.34;100.00
5484;BME280;2764;48.794;8.326;2023-02-13T02:01:29;79671.13;;;-140.34;100.00
5484;BME280;2764;48.794;8.326;2023-02-13T02:02:37;79667.09;;;-140.34;100.00
5484;BME280;2764;48.794;8.326;2023-02-13T02:03:55;79667.09;;;-140.34;100.00
5484;BME280;2764;48.794;8.326;2023-02-13T02:05:01;79673.13;;;-140.34;100.00
5484;BME280;2764;48.794;8.326;2023-02-13T02:06:06;79675.16;;;-140.34;100.00
5484;BME280;2764;48.794;8.326;2023-02-13T02:07:16;79671.13;;;-140.34;100.00
5484;BME280;2764;48.794;8.326;2023-02-13T02:08:21;79649.00;;;-140.34;100.00
5484;BME280;2764;48.794;8.326;2023-02-13T02:09:27;79661.06;;;-140.34;100.00
5484;BME280;2764;48.794;8.326;2023-02-13T02:10:32;79663.06;;;-140.34;100.00
5484;BME280;2764;48.794;8.326;2023-02-13T02:12:57;79669.09;;;-140.34;100.00
5484;BME280;2764;48.794;8.326;2023-02-13T02:14:01;79677.16;;;-140.34;100.00
5484;BME280;2764;48.794;8.326;2023-02-13T02:15:05;79669.09;;;-140.34;100.00
5484;BME280;2764;48.794;8.326;2023-02-13T02:16:07;79677.16;;;-140.34;100.00
5484;BME280;2764;48.794;8.326;2023-02-13T02:17:10;79689.22;;;-140.34;100.00
5484;BME280;2764;48.794;8.326;2023-02-13T02:18:18;79687.22;;;-140.34;100.00
5484;BME280;2764;48.794;8.326;2023-02-13T02:21:56;79685.22;;;-140.34;100.00
5484;BME280;2764;48.794;8.326;2023-02-13T02:23:29;79685.22;;;-140.34;100.00
5484;BME280;2764;48.794;8.326;2023-02-13T02:33:32;79691.25;;;-140.34;100.00
5484;BME280;2764;48.794;8.326;2023-02-13T02:34:49;79691.25;;;-140.34;100.00
5484;BME280;2764;48.794;8.326;2023-02-13T02:37:17;79693.25;;;-140.34;100.00
5484;BME280;2764;48.794;8.326;2023-02-13T02:41:03;79683.19;;;-140.34;100.00
5484;BME280;2764;48.794;8.326;2023-02-13T02:45:51;79691.25;;;-140.34;100.00
5484;BME280;2764;48.794;8.326;2023-02-13T02:46:39;79689.22;;;-140.34;100.00
5484;BME280;2764;48.794;8.326;2023-02-13T02:49:35;79689.22;;;-140.34;100.00
5484;BME280;2764;48.794;8.326;2023-02-13T02:52:45;79697.28;;;-140.34;100.00
5484;BME280;2764;48.794;8.326;2023-02-13T02:54:14;79701.31;;;-140.34;100.00
5484;BME280;2764;48.794;8.326;2023-02-13T02:55:54;79697.28;;;-140.34;100.00
5484;BME280;2764;48.794;8.326;2023-02-13T02:57:09;79705.31;;;-140.34;100.00
5484;BME280;2764;48.794;8.326;2023-02-13T02:58:29;79693.25;;;-140.34;100.00
5484;BME280;2764;48.794;8.326;2023-02-13T02:59:53;79707.34;;;-140.34;100.00
5484;BME280;2764;48.794;8.326;2023-02-13T03:01:17;79701.31;;;-140.34;100.00
5484;BME280;2764;48.794;8.326;2023-02-13T03:02:38;79701.31;;;-140.34;100.00
5484;BME280;2764;48.794;8.326;2023-02-13T03:03:59;79701.31;;;-140.34;100.00
5484;BME280;2764;48.794;8.326;2023-02-13T03:05:24;79713.38;;;-140.34;100.00
5484;BME280;2764;48.794;8.326;2023-02-13T03:06:58;79709.34;;;-140.34;100.00
5484;BME280;2764;48.794;8.326;2023-02-13T03:08:04;79713.38;;;-140.34;100.00
5484;BME280;2764;48.794;8.326;2023-02-13T03:09:11;79717.41;;;-140.34;100.00
5484;BME280;2764;48.794;8.326;2023-02-13T03:10:36;79729.47;;;-140.34;100.00
5484;BME280;2764;48.794;8.326;2023-02-13T03:11:57;79729.47;;;-140.34;100.00
5484;BME280;2764;48.794;8.326;2023-02-13T03:13:38;79729.47;;;-140.34;100.00
5484;BME280;2764;48.794;8.326;2023-02-13T03:14:42;79727.47;;;-140.34;100.00
5484;BME280;2764;48.794;8.326;2023-02-13T03:15:46;79721.44;;;-140.34;100.00
5484;BME280;2764;48.794;8.326;2023-02-13T03:17:12;79721.44;;;-140.34;100.00
5484;BME280;2764;48.794;8.326;2023-02-13T03:18:38;79715.38;;;-140.34;100.00
5484;BME280;2764;48.794;8.326;2023-02-13T03:24:09;79707.34;;;-140.34;100.00
5484;BME280;2764;48.794;8.326;2023-02-13T03:25:51;79711.38;;;-140.34;100.00
5484;BME280;2764;48.794;8.326;2023-02-13T03:28:56;79723.44;;;-140.34;100.00
5484;BME280;2764;48.794;8.326;2023-02-13T03:30:29;79725.44;;;-140.34;100.00
5484;BME280;2764;48.794;8.326;2023-02-13T03:31:40;79737.53;;;-140.34;100.00
5484;BME280;2764;48.794;8.326;2023-02-13T03:34:23;79745.56;;;-140.34;100.00
5484;BME280;2764;48.794;8.326;2023-02-13T03:37:09;79761.66;;;-140.34;100.00
5484;BME280;2764;48.794;8.326;2023-02-13T03:38:44;79757.66;;;-140.34;100.00
5484;BME280;2764;48.794;8.326;2023-02-13T03:40:00;79761.66;;;-140.34;100.00
5484;BME280;2764;48.794;8.326;2023-02-13T03:41:12;79773.75;;;-140.34;100.00
5484;BME280;2764;48.794;8.326;2023-02-13T03:45:38;79781.78;;;-140.34;100.00
5484;BME280;2764;48.794;8.326;2023-02-13T03:46:57;79785.81;;;-140.34;100.00
5484;BME280;2764;48.794;8.326;2023-02-13T03:48:02;79783.81;;;-140.34;100.00
5484;BME280;2764;48.794;8.326;2023-02-13T03:49:32;79781.78;;;-140.34;100.00
5484;BME280;2764;48.794;8.326;2023-02-13T03:50:55;79797.91;;;-140.34;100.00
5484;BME280;2764;48.794;8.326;2023-02-13T03:52:04;79793.88;;;-140.34;100.00
5484;BME280;2764;48.794;8.326;2023-02-13T03:53:11;79795.88;;;-140.34;100.00
5484;BME280;2764;48.794;8.326;2023-02-13T03:54:33;79791.84;;;-140.34;100.00
5484;BME280;2764;48.794;8.326;2023-02-13T03:55:57;79789.84;;;-140.34;100.00
5484;BME280;2764;48.794;8.326;2023-02-13T03:57:21;79789.84;;;-140.34;100.00
5484;BME280;2764;48.794;8.326;2023-02-13T03:58:48;79801.91;;;-140.34;100.00
5484;BME280;2764;48.794;8.326;2023-02-13T04:00:13;79805.94;;;-140.34;100.00
5484;BME280;2764;48.794;8.326;2023-02-13T04:01:18;79801.91;;;-140.34;100.00
5484;BME280;2764;48.794;8.326;2023-02-13T04:02:29;79793.88;;;-140.34;100.00
5484;BME280;2764;48.794;8.326;2023-02-13T04:04:07;79805.94;;;-140.34;100.00
5484;BME280;2764;48.794;8.326;2023-02-13T04:05:15;79809.97;;;-140.34;100.00
5484;BME280;2764;48.794;8.326;2023-02-13T04:06:26;79822.03;;;-140.34;100.00
5484;BME280;2764;48.794;8.326;2023-02-13T04:07:28;79826.06;;;-140.34;100.00
5484;BME280;2764;48.794;8.326;2023-02-13T04:08:31;79830.09;;;-140.34;100.00
5484;BME280;2764;48.794;8.326;2023-02-13T04:09:37;79842.16;;;-140.34;100.00
5484;BME280;2764;48.794;8.326;2023-02-13T04:10:49;79846.19;;;-140.34;100.00
5484;BME280;2764;48.794;8.326;2023-02-13T04:12:05;79846.19;;;-140.34;100.00
5484;BME280;2764;48.794;8.326;2023-02-13T04:13:15;79844.19;;;-140.34;100.00
5484;BME280;2764;48.794;8.326;2023-02-13T04:14:20;79838.13;;;-140.34;100.00
5484;BME280;2764;48.794;8.326;2023-02-13T04:15:31;79836.13;;;-140.34;100.00
5484;BME280;2764;48.794;8.326;2023-02-13T04:16:50;79842.16;;;-140.34;100.00
5484;BME280;2764;48.794;8.326;2023-02-13T04:18:09;79848.19;;;-140.34;100.00
5484;BME280;2764;48.794;8.326;2023-02-13T04:19:11;79850.22;;;-140.34;100.00
5484;BME280;2764;48.794;8.326;2023-02-13T04:20:13;79862.28;;;-140.34;100.00
5484;BME280;2764;48.794;8.326;2023-02-13T04:21:16;79848.19;;;-140.34;100.00
5484;BME280;2764;48.794;8.326;2023-02-13T04:22:18;79848.19;;;-140.34;100.00
5484;BME280;2764;48.794;8.326;2023-02-13T04:23:21;79846.19;;;-140.34;100.00
5484;BME280;2764;48.794;8.326;2023-02-13T04:24:24;79848.19;;;-140.34;100.00
5484;BME280;2764;48.794;8.326;2023-02-13T04:25:28;79852.22;;;-140.34;100.00
5484;BME280;2764;48.794;8.326;2023-02-13T04:26:35;79850.22;;;-140.34;100.00
5484;BME280;2764;48.794;8.326;2023-02-13T04:27:38;79854.25;;;-140.34;100.00
5484;BME280;2764;48.794;8.326;2023-02-13T04:28:40;79850.22;;;-140.34;100.00
5484;BME280;2764;48.794;8.326;2023-02-13T04:29:43;79850.22;;;-140.34;100.00
5484;BME280;2764;48.794;8.326;2023-02-13T04:30:46;79844.19;;;-140.34;100.00
5484;BME280;2764;48.794;8.326;2023-02-13T04:31:49;79844.19;;;-140.34;100.00
5484;BME280;2764;48.794;8.326;2023-02-13T04:32:51;79850.22;;;-140.34;100.00
5484;BME280;2764;48.794;8.326;2023-02-13T04:33:53;79848.19;;;-140.34;100.00
5484;BME280;2764;48.794;8.326;2023-02-13T04:34:55;79852.22;;;-140.34;100.00
5484;BME280;2764;48.794;8.326;2023-02-13T04:35:57;79846.19;;;-140.34;100.00
5484;BME280;2764;48.794;8.326;2023-02-13T04:37:00;79854.25;;;-140.34;100.00
5484;BME280;2764;48.794;8.326;2023-02-13T04:38:02;79848.19;;;-140.34;100.00
5484;BME280;2764;48.794;8.326;2023-02-13T04:39:04;79838.13;;;-140.34;100.00
5484;BME280;2764;48.794;8.326;2023-02-13T04:40:07;79842.16;;;-140.34;100.00
5484;BME280;2764;48.794;8.326;2023-02-13T04:41:10;79842.16;;;-140.34;100.00
5484;BME280;2764;48.794;8.326;2023-02-13T04:42:12;79840.16;;;-140.34;100.00
5484;BME280;2764;48.794;8.326;2023-02-13T04:43:13;79842.16;;;-140.34;100.00
5484;BME280;2764;48.794;8.326;2023-02-13T04:44:16;79842.16;;;-140.34;100.00
5484;BME280;2764;48.794;8.326;2023-02-13T04:45:17;79834.13;;;-140.34;100.00
5484;BME280;2764;48.794;8.326;2023-02-13T04:46:19;79836.13;;;-140.34;100.00
5484;BME280;2764;48.794;8.326;2023-02-13T04:47:21;79836.13;;;-140.34;100.00
5484;BME280;2764;48.794;8.326;2023-02-13T04:48:23;79832.09;;;-140.34;100.00
5484;BME280;2764;48.794;8.326;2023-02-13T04:49:25;79826.06;;;-140.34;100.00
5484;BME280;2764;48.794;8.326;2023-02-13T04:50:28;79818.03;;;-140.34;100.00
5484;BME280;2764;48.794;8.326;2023-02-13T04:51:30;79820.03;;;-140.34;100.00
5484;BME280;2764;48.794;8.326;2023-02-13T04:52:33;79818.03;;;-140.34;100.00
5484;BME280;2764;48.794;8.326;2023-02-13T04:53:36;79814.00;;;-140.34;100.00
5484;BME280;2764;48.794;8.326;2023-02-13T04:54:37;79818.03;;;-140.34;100.00
5484;BME280;2764;48.794;8.326;2023-02-13T04:55:39;79818.03;;;-140.34;100.00
5484;BME280;2764;48.794;8.326;2023-02-13T04:56:42;79814.00;;;-140.34;100.00
5484;BME280;2764;48.794;8.326;2023-02-13T04:57:45;79805.94;;;-140.34;100.00
5484;BME280;2764;48.794;8.326;2023-02-13T04:58:50;79807.97;;;-140.34;100.00
5484;BME280;2764;48.794;8.326;2023-02-13T04:59:52;79807.97;;;-140.34;100.00
5484;BME280;2764;48.794;8.326;2023-02-13T05:00:55;79811.97;;;-140.34;100.00
5484;BME280;2764;48.794;8.326;2023-02-13T05:02:01;79809.97;;;-140.34;100.00
5484;BME280;2764;48.794;8.326;2023-02-13T05:03:05;79816.00;;;-140.34;100.00
5484;BME280;2764;48.794;8.326;2023-02-13T05:04:08;79822.03;;;-140.34;100.00
5484;BME280;2764;48.794;8.326;2023-02-13T05:05:12;79818.03;;;-140.34;100.00
5484;BME280;2764;48.794;8.326;2023-02-13T05:06:14;79822.03;;;-140.34;100.00
5484;BME280;2764;48.794;8.326;2023-02-13T05:07:17;79826.06;;;-140.34;100.00
5484;BME280;2764;48.794;8.326;2023-02-13T05:08:18;79828.06;;;-140.34;100.00
5484;BME280;2764;48.794;8.326;2023-02-13T05:09:20;79834.13;;;-140.34;100.00
5484;BME280;2764;48.794;8.326;2023-02-13T05:10:22;79834.13;;;-140.34;100.00
5484;BME280;2764;48.794;8.326;2023-02-13T05:11:24;79846.19;;;-140.34;100.00
5484;BME280;2764;48.794;8.326;2023-02-13T05:12:26;79850.22;;;-140.34;100.00
5484;BME280;2764;48.794;8.326;2023-02-13T05:13:28;79842.16;;;-140.34;100.00
5484;BME280;2764;48.794;8.326;2023-02-13T05:14:30;79842.16;;;-140.34;100.00
5484;BME280;2764;48.794;8.326;2023-02-13T05:15:33;79850.22;;;-140.34;100.00
5484;BME280;2764;48.794;8.326;2023-02-13T05:16:35;79854.25;;;-140.34;100.00
5484;BME280;2764;48.794;8.326;2023-02-13T05:17:37;79858.25;;;-140.34;100.00
5484;BME280;2764;48.794;8.326;2023-02-13T05:18:39;79854.25;;;-140.34;100.00
5484;BME280;2764;48.794;8.326;2023-02-13T05:19:41;79860.28;;;-140.34;100.00
5484;BME280;2764;48.794;8.326;2023-02-13T05:20:43;79862.28;;;-140.34;100.00
5484;BME280;2764;48.794;8.326;2023-02-13T05:21:47;79866.31;;;-140.34;100.00
5484;BME280;2764;48.794;8.326;2023-02-13T05:23:12;79870.34;;;-140.34;100.00
5484;BME280;2764;48.794;8.326;2023-02-13T05:24:24;79878.38;;;-140.34;100.00
5484;BME280;2764;48.794;8.326;2023-02-13T05:25:27;79874.38;;;-140.34;100.00
5484;BME280;2764;48.794;8.326;2023-02-13T05:26:32;79870.34;;;-140.34;100.00
5484;BME280;2764;48.794;8.326;2023-02-13T05:27:34;79874.38;;;-140.34;100.00
5484;BME280;2764;48.794;8.326;2023-02-13T05:28:36;79870.34;;;-140.34;100.00
5484;BME280;2764;48.794;8.326;2023-02-13T05:29:58;79874.38;;;-140.34;100.00
5484;BME280;2764;48.794;8.326;2023-02-13T05:31:00;79874.38;;;-140.34;100.00
5484;BME280;2764;48.794;8.326;2023-02-13T05:32:03;79884.44;;;-140.34;100.00
5484;BME280;2764;48.794;8.326;2023-02-13T05:33:06;79876.38;;;-140.34;100.00
5484;BME280;2764;48.794;8.326;2023-02-13T05:34:08;79882.41;;;-140.34;100.00
5484;BME280;2764;48.794;8.326;2023-02-13T05:35:09;79886.44;;;-140.34;100.00
5484;BME280;2764;48.794;8.326;2023-02-13T05:36:11;79890.47;;;-140.34;100.00
5484;BME280;2764;48.794;8.326;2023-02-13T05:37:14;79886.44;;;-140.34;100.00
5484;BME280;2764;48.794;8.326;2023-02-13T05:38:17;79894.47;;;-140.34;100.00
5484;BME280;2764;48.794;8.326;2023-02-13T05:39:19;79898.50;;;-140.34;100.00
5484;BME280;2764;48.794;8.326;2023-02-13T05:40:21;79898.50;;;-140.34;100.00
5484;BME280;2764;48.794;8.326;2023-02-13T05:41:23;79902.53;;;-140.34;100.00
5484;BME280;2764;48.794;8.326;2023-02-13T05:42:25;79902.53;;;-140.34;100.00
5484;BME280;2764;48.794;8.326;2023-02-13T05:43:28;79894.47;;;-140.34;100.00
5484;BME280;2764;48.794;8.326;2023-02-13T05:44:31;79900.53;;;-140.34;100.00
5484;BME280;2764;48.794;8.326;2023-02-13T05:45:33;79894.47;;;-140.34;100.00
5484;BME280;2764;48.794;8.326;2023-02-13T05:46:36;79890.47;;;-140.34;100.00
5484;BME280;2764;48.794;8.326;2023-02-13T05:47:40;79880.41;;;-140.34;100.00
5484;BME280;2764;48.794;8.326;2023-02-13T05:48:43;79866.31;;;-140.34;100.00
5484;BME280;2764;48.794;8.326;2023-02-13T05:49:45;79858.25;;;-140.34;100.00
5484;BME280;2764;48.794;8.326;2023-02-13T05:50:48;79854.25;;;-140.34;100.00
5484;BME280;2764;48.794;8.326;2023-02-13T05:51:51;79856.25;;;-140.34;100.00
5484;BME280;2764;48.794;8.326;2023-02-13T05:52:53;79854.25;;;-140.34;100.00
5484;BME280;2764;48.794;8.326;2023-02-13T05:53:55;79850.22;;;-140.34;100.00
5484;BME280;2764;48.794;8.326;2023-02-13T05:54:57;79842.16;;;-140.34;100.00
5484;BME280;2764;48.794;8.326;2023-02-13T05:55:59;79830.09;;;-140.34;100.00
5484;BME280;2764;48.794;8.326;2023-02-13T05:57:01;79828.06;;;-140.34;100.00
5484;BME280;2764;48.794;8.326;2023-02-13T05:58:04;79816.00;;;-140.34;100.00
5484;BME280;2764;48.794;8.326;2023-02-13T05:59:06;79801.91;;;-140.34;100.00
5484;BME280;2764;48.794;8.326;2023-02-13T06:00:08;79793.88;;;-140.34;100.00
5484;BME280;2764;48.794;8.326;2023-02-13T06:01:11;79777.78;;;-140.34;100.00
5484;BME280;2764;48.794;8.326;2023-02-13T06:02:13;79771.72;;;-140.34;100.00
5484;BME280;2764;48.794;8.326;2023-02-13T06:03:15;79755.63;;;-140.34;100.00
5484;BME280;2764;48.794;8.326;2023-02-13T06:04:18;79741.56;;;-140.34;100.00
5484;BME280;2764;48.794;8.326;2023-02-13T06:05:21;79731.50;;;-140.34;100.00
5484;BME280;2764;48.794;8.326;2023-02-13T06:06:23;79727.47;;;-140.34;100.00
5484;BME280;2764;48.794;8.326;2023-02-13T06:07:26;79707.34;;;-140.34;100.00
5484;BME280;2764;48.794;8.326;2023-02-13T06:08:28;79701.31;;;-140.34;100.00
5484;BME280;2764;48.794;8.326;2023-02-13T06:09:30;79683.19;;;-140.34;100.00
5484;BME280;2764;48.794;8.326;2023-02-13T06:10:32;79679.16;;;-140.34;100.00
5484;BME280;2764;48.794;8.326;2023-02-13T06:11:35;79677.16;;;-140.34;100.00
5484;BME280;2764;48.794;8.326;2023-02-13T06:12:37;79675.16;;;-140.34;100.00
5484;BME280;2764;48.794;8.326;2023-02-13T06:13:38;79669.09;;;-140.34;100.00
5484;BME280;2764;48.794;8.326;2023-02-13T06:14:41;79673.13;;;-140.34;100.00
5484;BME280;2764;48.794;8.326;2023-02-13T06:15:43;79669.09;;;-140.34;100.00
5484;BME280;2764;48.794;8.326;2023-02-13T06:16:47;79669.09;;;-140.34;100.00
5484;BME280;2764;48.794;8.326;2023-02-13T06:17:49;79665.09;;;-140.34;100.00
5484;BME280;2764;48.794;8.326;2023-02-13T06:18:51;79671.13;;;-140.34;100.00
5484;BME280;2764;48.794;8.326;2023-02-13T06:19:52;79669.09;;;-140.34;100.00
5484;BME280;2764;48.794;8.326;2023-02-13T06:20:54;79675.16;;;-140.34;100.00
5484;BME280;2764;48.794;8.326;2023-02-13T06:21:57;79673.13;;;-140.34;100.00
5484;BME280;2764;48.794;8.326;2023-02-13T06:22:58;79671.13;;;-140.34;100.00
5484;BME280;2764;48.794;8.326;2023-02-13T06:24:00;79679.16;;;-140.34;100.00
5484;BME280;2764;48.794;8.326;2023-02-13T06:25:03;79673.13;;;-140.34;100.00